Aérodrome :
LOGIN :

S'inscrire | Disclaimer

   EN    FR    IT 

 










Légende :    VFR   VFR Marginal   IFR   IFR Intensif   IFR Très Intensif
Visi : 
Plafond : 
>= 8 km
>= 3000ft
5 à 8 km
1000 à 3000 ft
1500m à 5 km
500 à 1000 ft
800 à 1500m
200 à 500 ft
< 800m
< 200 ft
Symboles :   Orages  Brouillard  Fortes neiges  Fortes précipitations  Vent > 20 kt
SIGMETs :   Divers  Orages  Givrage  Turbulence  Onde Orograph.  Cendres Volcan.






- Altitude de l'aérodrome : 39 ft
- Code IATA : ANR


EBAW - Anvers / Antwerpen Deurne

DERNIER METAR :
  • 220120Z AUTO 22015KT 9999 // OVC022/// 08/03 Q1022

METARs EXPIRÉS :
  • 220020Z AUTO 22012KT 190V260 9999 // OVC024/// 08/03 Q1022
  • 212250Z AUTO 22014KT 9999 // OVC028/// 08/03 Q1023

TAF COR TAF EBAW
Valide du 21 à 21h jusqu'au 22 à 06h UTC


212109Z 2121/2206 23015G25KT 9999 BKN020
BECMG 2202/2204 SCT008 BKN012
PROB40
TEMPO 2204/2206 4000 -RADZ BKN008



MET'MAP, la Météo Aéronautique d'un coup d'oeil ! - Copyright ORBIFLY Décembre 2007 - Disclaimer

ORBIFLY MET'MAP TEAM :

Programmation & Développement : Alexandra Zaïnal
Sur une idée originale de : Baudouin d'Aumeries
Assistance à la programmation : Marc-Olivier Méhu
Soutien technique & logistique : Manuel Goepfert

Contact : metmap@orbifly.com




SOURCES & CREDITS :

   NOAA